Time;durP1;ratioP1;P1;durP2;ratioP2;P2;SDS_P1;SDS_P2;PMS_P1;PMS_P2;Temp;Humidity;BMP_temperature;BMP_pressure;BME280_temperature;BME280_humidity;BME280_pressure;Samples;Min_cycle;Max_cycle;Signal;HPM_P1;HPM_P2
2021/05/11 00:01:17;;;;;;;8.02;2.95;;;;;;;;;;5030307;28;20022;-69
2021/05/11 00:03:44;;;;;;;8.27;3.00;;;;;;;;;;5030701;28;20025;-72
2021/05/11 00:06:10;;;;;;;8.02;3.15;;;;;;;;;;5030684;28;20109;-69
2021/05/11 00:08:36;;;;;;;7.63;3.08;;;;;;;;;;5030600;28;20057;-69
2021/05/11 00:11:02;;;;;;;11.50;3.40;;;;;;;;;;5029279;28;20025;-68
2021/05/11 00:13:28;;;;;;;6.78;3.28;;;;;;;;;;5030455;28;20040;-68
2021/05/11 00:15:54;;;;;;;6.00;2.80;;;;;;;;;;5030603;28;20458;-69
2021/05/11 00:18:20;;;;;;;7.40;2.92;;;;;;;;;;5029579;28;20022;-69
2021/05/11 00:20:47;;;;;;;5.57;2.97;;;;;;;;;;5030219;28;20018;-71
2021/05/11 00:23:13;;;;;;;5.80;2.78;;;;;;;;;;5029751;28;20542;-70
2021/05/11 00:25:39;;;;;;;9.38;3.15;;;;;;;;;;5029841;28;20077;-69
2021/05/11 00:28:05;;;;;;;7.28;3.13;;;;;;;;;;5029543;28;20032;-69
2021/05/11 00:30:32;;;;;;;6.97;3.50;;;;;;;;;;5029645;28;20025;-69
2021/05/11 00:32:58;;;;;;;5.65;2.67;;;;;;;;;;5013673;28;20068;-69
2021/05/11 00:35:24;;;;;;;7.22;3.17;;;;;;;;;;5010453;28;20046;-69
2021/05/11 00:37:50;;;;;;;5.43;2.78;;;;;;;;;;5010397;28;20459;-71
2021/05/11 00:40:16;;;;;;;5.93;2.60;;;;;;;;;;5010526;28;20080;-69
2021/05/11 00:42:42;;;;;;;5.72;2.95;;;;;;;;;;5010380;28;20019;-69
2021/05/11 00:45:08;;;;;;;5.72;2.80;;;;;;;;;;5010495;28;20026;-69
2021/05/11 00:47:35;;;;;;;4.97;2.63;;;;;;;;;;5009223;28;20029;-69
2021/05/11 00:50:01;;;;;;;5.05;2.58;;;;;;;;;;5010250;28;20029;-69
2021/05/11 00:52:27;;;;;;;7.05;2.72;;;;;;;;;;5010174;28;20034;-68
2021/05/11 00:54:53;;;;;;;7.47;3.00;;;;;;;;;;5009059;28;20054;-69
2021/05/11 00:57:20;;;;;;;6.85;2.85;;;;;;;;;;5010420;28;20051;-70
2021/05/11 00:59:46;;;;;;;5.35;2.53;;;;;;;;;;5010132;28;20025;-69
2021/05/11 01:02:12;;;;;;;7.65;2.88;;;;;;;;;;5010156;28;20030;-69
2021/05/11 01:04:38;;;;;;;6.18;2.60;;;;;;;;;;5008900;28;20030;-69
2021/05/11 01:07:05;;;;;;;6.82;2.80;;;;;;;;;;5010199;28;20588;-69
2021/05/11 01:09:32;;;;;;;7.13;2.70;;;;;;;;;;5009925;28;20026;-69
2021/05/11 01:11:58;;;;;;;6.70;2.63;;;;;;;;;;5009653;28;20053;-69
2021/05/11 01:14:28;;;;;;;7.35;2.88;;;;;;;;;;5009764;28;20067;-69
2021/05/11 01:16:57;;;;;;;4.88;2.80;;;;;;;;;;5009913;28;20037;-69
2021/05/11 01:24:46;;;;;;;8.23;2.70;;;;;;;;;;5009867;28;20112;-69
2021/05/11 01:48:52;;;;;;;4.75;2.45;;;;;;;;;;5009360;28;20029;-69
2021/05/11 01:51:44;;;;;;;6.10;2.63;;;;;;;;;;5009249;28;20026;-69
2021/05/11 02:23:20;;;;;;;8.60;2.58;;;;;;;;;;5006818;28;20099;-69
2021/05/11 02:25:46;;;;;;;4.55;2.50;;;;;;;;;;5008060;28;20540;-68
2021/05/11 02:28:12;;;;;;;5.97;2.85;;;;;;;;;;5008307;28;20026;-69
2021/05/11 02:30:38;;;;;;;6.03;2.45;;;;;;;;;;5008310;28;20039;-69
2021/05/11 02:33:04;;;;;;;5.43;2.47;;;;;;;;;;5008135;28;20037;-69
2021/05/11 02:35:30;;;;;;;6.90;2.60;;;;;;;;;;5007990;28;20071;-69
2021/05/11 02:37:56;;;;;;;5.68;2.80;;;;;;;;;;5008359;28;20113;-68
2021/05/11 02:40:24;;;;;;;4.78;2.40;;;;;;;;;;5008288;28;20458;-70
2021/05/11 02:42:55;;;;;;;5.45;2.80;;;;;;;;;;5008030;28;20066;-69
2021/05/11 02:45:21;;;;;;;9.63;2.70;;;;;;;;;;5007971;28;20102;-68
2021/05/11 02:47:50;;;;;;;6.15;2.83;;;;;;;;;;5007995;28;20105;-68
2021/05/11 02:50:20;;;;;;;6.43;2.28;;;;;;;;;;5008471;28;20018;-69
2021/05/11 02:52:47;;;;;;;5.47;2.28;;;;;;;;;;5007558;28;20040;-69
2021/05/11 02:55:14;;;;;;;4.65;2.15;;;;;;;;;;5009226;28;20029;-68
2021/05/11 02:57:40;;;;;;;5.65;2.50;;;;;;;;;;5007430;28;20360;-69
2021/05/11 03:00:07;;;;;;;5.80;2.65;;;;;;;;;;5007388;28;20026;-69
2021/05/11 03:02:33;;;;;;;5.78;2.40;;;;;;;;;;5008585;28;20390;-68
2021/05/11 03:04:59;;;;;;;5.63;2.33;;;;;;;;;;5008588;28;20022;-69
2021/05/11 03:07:26;;;;;;;6.20;2.50;;;;;;;;;;5008517;28;20025;-70
2021/05/11 03:09:52;;;;;;;7.00;2.40;;;;;;;;;;5008373;28;20018;-69
2021/05/11 03:12:19;;;;;;;6.85;2.47;;;;;;;;;;5007171;28;20057;-69
2021/05/11 03:14:45;;;;;;;4.28;2.33;;;;;;;;;;5007114;28;20493;-70
2021/05/11 03:17:11;;;;;;;5.18;2.60;;;;;;;;;;5007013;28;20034;-68
2021/05/11 03:19:37;;;;;;;10.00;3.05;;;;;;;;;;5006919;28;20025;-69
2021/05/11 03:22:03;;;;;;;4.43;2.33;;;;;;;;;;5006724;28;20022;-69
2021/05/11 03:24:30;;;;;;;6.22;2.30;;;;;;;;;;5011154;28;20100;-68
2021/05/11 03:26:56;;;;;;;4.70;2.38;;;;;;;;;;5011674;28;20022;-68
2021/05/11 03:29:22;;;;;;;5.13;2.38;;;;;;;;;;5011707;28;20651;-68
2021/05/11 03:31:48;;;;;;;5.47;2.35;;;;;;;;;;5009953;28;20034;-68
2021/05/11 03:34:14;;;;;;;5.82;2.22;;;;;;;;;;5011162;28;20050;-69
2021/05/11 03:36:40;;;;;;;5.78;2.40;;;;;;;;;;5011608;28;20462;-68
2021/05/11 03:39:08;;;;;;;5.65;2.33;;;;;;;;;;5011576;28;20034;-68
2021/05/11 03:41:44;;;;;;;5.90;2.30;;;;;;;;;;5011315;28;20042;-70
2021/05/11 03:44:16;;;;;;;6.32;2.85;;;;;;;;;;5011282;28;20029;-68
2021/05/11 03:46:42;;;;;;;6.10;2.40;;;;;;;;;;5011343;28;20474;-68
2021/05/11 03:49:08;;;;;;;4.55;2.20;;;;;;;;;;5009953;28;20121;-69
2021/05/11 03:51:38;;;;;;;4.70;2.08;;;;;;;;;;5011173;28;20022;-68
2021/05/11 03:54:05;;;;;;;7.07;2.40;;;;;;;;;;5011230;28;20049;-68
2021/05/11 03:56:31;;;;;;;6.07;2.45;;;;;;;;;;5011297;28;20025;-69
2021/05/11 03:58:58;;;;;;;6.65;3.00;;;;;;;;;;5011281;28;20058;-68
2021/05/11 04:01:24;;;;;;;6.45;2.50;;;;;;;;;;5010868;28;20018;-68
2021/05/11 04:03:50;;;;;;;6.28;2.83;;;;;;;;;;5011104;28;20022;-68
2021/05/11 04:06:17;;;;;;;6.97;3.13;;;;;;;;;;5008485;28;20029;-70
2021/05/11 04:08:50;;;;;;;8.57;3.28;;;;;;;;;;5022668;28;20492;-68
2021/05/11 04:16:27;;;;;;;9.23;3.42;;;;;;;;;;4991509;28;20117;-68
2021/05/11 04:18:54;;;;;;;7.63;2.85;;;;;;;;;;4991270;28;20034;-68
2021/05/11 04:21:21;;;;;;;11.02;3.17;;;;;;;;;;4991365;28;20026;-68
2021/05/11 04:23:48;;;;;;;7.95;3.33;;;;;;;;;;4991316;28;20494;-68
2021/05/11 04:26:15;;;;;;;8.20;3.47;;;;;;;;;;4990974;28;20487;-68
2021/05/11 04:28:41;;;;;;;7.60;2.80;;;;;;;;;;4991108;28;20014;-68
2021/05/11 04:31:08;;;;;;;7.40;3.33;;;;;;;;;;5022376;28;20030;-68
2021/05/11 04:33:34;;;;;;;7.22;3.35;;;;;;;;;;4990240;28;20037;-67
2021/05/11 04:36:00;;;;;;;6.72;3.47;;;;;;;;;;4991091;28;20035;-68
2021/05/11 04:38:27;;;;;;;9.43;3.30;;;;;;;;;;4991080;28;20149;-67
2021/05/11 04:40:53;;;;;;;4.57;2.22;;;;;;;;;;4991044;28;20026;-68
2021/05/11 04:43:22;;;;;;;7.13;3.20;;;;;;;;;;4990937;28;20051;-68
2021/05/11 04:45:50;;;;;;;4.60;2.38;;;;;;;;;;4990671;28;20466;-68
2021/05/11 04:48:16;;;;;;;7.32;2.83;;;;;;;;;;4990505;28;20022;-67
2021/05/11 04:50:43;;;;;;;4.72;2.40;;;;;;;;;;4990677;28;20050;-68
2021/05/11 04:53:09;;;;;;;7.53;2.72;;;;;;;;;;4990722;28;20038;-69
2021/05/11 04:55:35;;;;;;;6.20;2.30;;;;;;;;;;4990815;28;20026;-68
2021/05/11 04:58:01;;;;;;;5.40;2.60;;;;;;;;;;5022222;28;20555;-67
2021/05/11 05:00:27;;;;;;;7.47;2.60;;;;;;;;;;4990631;28;20026;-68
2021/05/11 05:02:54;;;;;;;4.45;2.20;;;;;;;;;;5022067;28;20031;-68
2021/05/11 05:05:20;;;;;;;8.10;2.40;;;;;;;;;;4990549;28;20050;-72
2021/05/11 05:07:46;;;;;;;5.00;2.58;;;;;;;;;;5021924;28;20034;-68
2021/05/11 05:10:13;;;;;;;4.75;2.30;;;;;;;;;;4990284;28;20352;-69
2021/05/11 05:12:39;;;;;;;4.55;2.20;;;;;;;;;;4990442;28;20084;-67
2021/05/11 05:15:06;;;;;;;8.95;2.45;;;;;;;;;;4990388;28;20105;-68
2021/05/11 05:17:32;;;;;;;6.10;2.33;;;;;;;;;;4990364;28;20034;-68
2021/05/11 05:19:58;;;;;;;6.95;2.30;;;;;;;;;;4990221;28;20026;-68
2021/05/11 05:22:25;;;;;;;7.35;2.72;;;;;;;;;;4989854;28;20049;-68
2021/05/11 05:24:56;;;;;;;7.40;2.40;;;;;;;;;;4990114;28;20034;-67
2021/05/11 05:27:37;;;;;;;6.07;2.45;;;;;;;;;;4990037;28;20023;-67
2021/05/11 05:30:04;;;;;;;5.47;2.22;;;;;;;;;;4989957;28;20084;-67
2021/05/11 05:32:30;;;;;;;5.28;2.45;;;;;;;;;;4989836;28;20037;-67
2021/05/11 05:34:56;;;;;;;4.88;2.33;;;;;;;;;;4989742;28;20068;-68
2021/05/11 05:37:22;;;;;;;5.88;2.78;;;;;;;;;;4989544;28;20034;-67
2021/05/11 05:39:52;;;;;;;5.70;2.30;;;;;;;;;;4989723;28;20030;-68
2021/05/11 05:42:18;;;;;;;5.22;2.28;;;;;;;;;;5021020;28;20025;-68
2021/05/11 05:44:45;;;;;;;7.53;2.33;;;;;;;;;;4989811;28;20437;-68
2021/05/11 05:47:11;;;;;;;7.13;2.25;;;;;;;;;;4988825;28;20544;-68
2021/05/11 05:49:47;;;;;;;7.70;2.50;;;;;;;;;;4990093;28;20447;-67
2021/05/11 05:52:33;;;;;;;4.78;2.30;;;;;;;;;;4989454;28;20022;-68
2021/05/11 05:54:59;;;;;;;3.70;1.95;;;;;;;;;;5021142;28;20037;-67
2021/05/11 05:57:25;;;;;;;4.00;2.03;;;;;;;;;;4989678;28;20015;-67
2021/05/11 05:59:51;;;;;;;5.05;1.92;;;;;;;;;;4989671;28;20033;-68
2021/05/11 06:02:19;;;;;;;5.13;2.13;;;;;;;;;;5020844;28;20023;-68
2021/05/11 06:04:45;;;;;;;6.57;2.30;;;;;;;;;;5020901;28;20478;-68
2021/05/11 06:07:13;;;;;;;4.55;2.00;;;;;;;;;;4989802;28;20027;-68
2021/05/11 06:09:39;;;;;;;10.40;2.65;;;;;;;;;;4989681;28;20091;-67
2021/05/11 06:14:49;;;;;;;5.18;1.90;;;;;;;;;;4989459;28;20026;-68
2021/05/11 06:17:17;;;;;;;5.88;2.35;;;;;;;;;;4989254;28;20030;-68
2021/05/11 06:19:44;;;;;;;4.82;2.30;;;;;;;;;;4989124;28;20487;-68
2021/05/11 06:22:10;;;;;;;7.15;2.13;;;;;;;;;;4988895;28;20101;-67
2021/05/11 06:24:36;;;;;;;3.92;1.73;;;;;;;;;;4989206;28;20084;-68
2021/05/11 06:27:03;;;;;;;7.03;2.03;;;;;;;;;;5020850;28;20018;-68
2021/05/11 06:29:31;;;;;;;4.50;1.88;;;;;;;;;;4988987;28;20419;-68
2021/05/11 06:31:57;;;;;;;9.18;2.58;;;;;;;;;;4988890;28;20023;-67
2021/05/11 06:34:23;;;;;;;7.03;2.17;;;;;;;;;;4989127;28;20050;-70
2021/05/11 06:36:49;;;;;;;8.95;2.38;;;;;;;;;;5020831;28;20030;-72
2021/05/11 06:39:16;;;;;;;5.80;2.33;;;;;;;;;;5020627;28;20483;-73
2021/05/11 06:41:45;;;;;;;6.63;1.88;;;;;;;;;;5021360;28;20391;-70
2021/05/11 06:44:20;;;;;;;6.80;1.90;;;;;;;;;;5021216;28;20019;-67
2021/05/11 06:54:14;;;;;;;3.92;1.85;;;;;;;;;;4989632;28;20414;-73
2021/05/11 06:56:42;;;;;;;6.75;1.90;;;;;;;;;;4990751;28;20463;-67
2021/05/11 06:59:08;;;;;;;5.35;1.88;;;;;;;;;;4993800;28;20121;-74
2021/05/11 07:01:34;;;;;;;7.32;1.80;;;;;;;;;;4992600;28;20026;-68
2021/05/11 07:04:00;;;;;;;4.38;1.88;;;;;;;;;;4992244;28;20026;-70
2021/05/11 07:06:27;;;;;;;8.75;1.92;;;;;;;;;;4992108;28;20026;-69
2021/05/11 07:09:01;;;;;;;6.65;2.10;;;;;;;;;;4992274;28;20588;-72
2021/05/11 07:14:16;;;;;;;4.55;1.70;;;;;;;;;;5019657;28;20070;-69
2021/05/11 07:16:42;;;;;;;3.65;1.52;;;;;;;;;;4992220;28;20026;-74
2021/05/11 07:19:08;;;;;;;10.07;1.80;;;;;;;;;;5023678;28;20049;-69
2021/05/11 07:21:35;;;;;;;5.72;1.60;;;;;;;;;;5023327;28;20037;-71
2021/05/11 07:24:03;;;;;;;4.47;1.70;;;;;;;;;;5023320;28;20106;-69
2021/05/11 07:26:30;;;;;;;3.63;1.85;;;;;;;;;;4991933;28;20022;-69
2021/05/11 07:29:09;;;;;;;8.90;1.83;;;;;;;;;;4991827;28;20022;-72
2021/05/11 07:31:36;;;;;;;4.60;1.92;;;;;;;;;;4991773;28;20022;-70
2021/05/11 07:34:04;;;;;;;8.52;1.75;;;;;;;;;;4991805;28;20070;-68
2021/05/11 07:36:31;;;;;;;3.72;1.73;;;;;;;;;;4991900;28;20383;-69
2021/05/11 07:38:57;;;;;;;5.68;1.67;;;;;;;;;;4991775;28;20118;-75
2021/05/11 07:41:23;;;;;;;5.95;1.73;;;;;;;;;;4991677;28;20027;-69
2021/05/11 07:43:53;;;;;;;5.35;2.08;;;;;;;;;;5023166;28;20407;-68
2021/05/11 08:05:22;;;;;;;4.80;1.55;;;;;;;;;;5114557;28;20521;-71
2021/05/11 08:10:51;;;;;;;4.28;1.67;;;;;;;;;;5114332;28;20566;-69
2021/05/11 08:16:11;;;;;;;3.72;1.70;;;;;;;;;;5114609;28;20042;-76
2021/05/11 08:29:20;;;;;;;4.53;1.67;;;;;;;;;;5030598;28;20520;-76
2021/05/11 08:31:46;;;;;;;3.45;1.42;;;;;;;;;;5030630;28;20080;-71
2021/05/11 08:34:12;;;;;;;8.35;1.88;;;;;;;;;;5030530;28;20057;-69
2021/05/11 08:36:38;;;;;;;4.70;1.83;;;;;;;;;;5030606;28;20478;-68
2021/05/11 08:39:05;;;;;;;5.35;1.65;;;;;;;;;;5030601;28;20033;-67
2021/05/11 08:41:31;;;;;;;4.63;1.83;;;;;;;;;;5029253;28;20025;-71
2021/05/11 08:43:57;;;;;;;4.90;1.50;;;;;;;;;;5030471;28;20040;-71
2021/05/11 08:46:23;;;;;;;3.85;1.73;;;;;;;;;;5030456;28;20409;-70
2021/05/11 08:48:51;;;;;;;4.82;1.52;;;;;;;;;;5030274;28;20029;-70
2021/05/11 09:24:03;;;;;;;6.22;1.70;;;;;;;;;;5029326;28;20077;-71
2021/05/11 09:29:35;;;;;;;3.47;1.38;;;;;;;;;;5029820;28;20488;-71
2021/05/11 09:50:57;;;;;;;4.90;1.98;;;;;;;;;;5030005;28;20033;-75
2021/05/11 10:00:18;;;;;;;5.82;1.90;;;;;;;;;;5029384;28;20032;-68
2021/05/11 10:31:55;;;;;;;4.65;1.52;;;;;;;;;;5028791;28;20067;-67
2021/05/11 10:40:56;;;;;;;12.38;2.38;;;;;;;;;;5028507;28;20558;-68
2021/05/11 10:48:17;;;;;;;30.73;19.30;;;;;;;;;;5028559;28;20090;-73
2021/05/11 10:50:44;;;;;;;45.80;34.42;;;;;;;;;;5027425;28;20430;-71
2021/05/11 10:53:45;;;;;;;34.03;26.05;;;;;;;;;;5014436;28;20038;-72
2021/05/11 10:56:33;;;;;;;24.90;20.70;;;;;;;;;;4967107;28;20060;-75
2021/05/11 11:01:55;;;;;;;19.17;14.68;;;;;;;;;;4989820;28;20383;-77
2021/05/11 11:04:24;;;;;;;18.02;13.23;;;;;;;;;;4989386;28;20026;-81
2021/05/11 11:06:59;;;;;;;24.25;13.15;;;;;;;;;;4988038;28;20027;-81
2021/05/11 11:09:29;;;;;;;15.68;9.60;;;;;;;;;;4988778;28;20076;-69
2021/05/11 11:11:56;;;;;;;12.15;9.10;;;;;;;;;;4988357;28;20023;-72
2021/05/11 11:14:23;;;;;;;11.82;7.32;;;;;;;;;;5020317;28;20034;-68
2021/05/11 11:16:59;;;;;;;10.07;6.32;;;;;;;;;;5019931;28;20084;-71
2021/05/11 11:19:25;;;;;;;12.77;5.88;;;;;;;;;;4989027;28;20026;-77
2021/05/11 11:24:30;;;;;;;7.63;4.22;;;;;;;;;;4988626;28;20379;-69
2021/05/11 11:26:58;;;;;;;8.27;4.18;;;;;;;;;;4988899;28;20022;-75
2021/05/11 11:29:24;;;;;;;10.82;4.35;;;;;;;;;;4988497;28;20530;-69
2021/05/11 11:31:51;;;;;;;8.65;3.90;;;;;;;;;;4988518;28;20022;-76
2021/05/11 11:34:19;;;;;;;12.60;3.47;;;;;;;;;;4988630;28;20046;-79
2021/05/11 11:36:46;;;;;;;7.30;3.67;;;;;;;;;;5020773;28;20095;-82
2021/05/11 11:39:17;;;;;;;5.80;3.10;;;;;;;;;;4988921;28;20032;-75
2021/05/11 11:41:43;;;;;;;8.32;2.80;;;;;;;;;;4988810;28;20027;-71
2021/05/11 11:44:11;;;;;;;7.53;2.78;;;;;;;;;;4990003;28;20079;-66
2021/05/11 11:46:38;;;;;;;6.28;2.20;;;;;;;;;;5023422;28;20383;-69
2021/05/11 11:49:09;;;;;;;11.07;2.67;;;;;;;;;;5022988;28;20033;-67
2021/05/11 11:51:36;;;;;;;9.10;2.42;;;;;;;;;;4991881;28;20034;-70
2021/05/11 11:54:32;;;;;;;5.82;2.50;;;;;;;;;;4991587;28;20038;-68
2021/05/11 11:59:24;;;;;;;6.18;2.15;;;;;;;;;;4991051;28;20034;-74
2021/05/11 12:01:54;;;;;;;20.38;3.00;;;;;;;;;;5022798;28;20027;-72
2021/05/11 12:04:20;;;;;;;6.28;2.10;;;;;;;;;;5023084;28;20030;-76
2021/05/11 12:06:49;;;;;;;6.40;1.73;;;;;;;;;;4991445;28;20054;-75
2021/05/11 12:09:15;;;;;;;14.35;2.65;;;;;;;;;;5023205;28;20485;-81
2021/05/11 12:11:42;;;;;;;6.78;2.28;;;;;;;;;;5023058;28;20026;-72
2021/05/11 12:14:08;;;;;;;4.75;2.17;;;;;;;;;;4991712;28;20027;-74
2021/05/11 12:16:41;;;;;;;6.80;2.35;;;;;;;;;;4991288;28;20027;-70
2021/05/11 12:21:56;;;;;;;7.95;2.00;;;;;;;;;;4991274;28;20039;-75
2021/05/11 12:24:26;;;;;;;7.68;2.00;;;;;;;;;;5022769;28;20034;-79
2021/05/11 12:26:52;;;;;;;7.80;2.20;;;;;;;;;;5022698;28;20164;-70
2021/05/11 12:29:19;;;;;;;4.57;1.90;;;;;;;;;;4991119;28;20038;-70
2021/05/11 12:31:46;;;;;;;5.68;1.90;;;;;;;;;;5022943;28;20037;-75
2021/05/11 12:34:16;;;;;;;4.43;1.58;;;;;;;;;;4991260;28;20506;-77
2021/05/11 12:36:45;;;;;;;6.10;1.65;;;;;;;;;;4991017;28;20055;-67
2021/05/11 12:39:52;;;;;;;10.25;2.40;;;;;;;;;;4990645;28;20463;-67
2021/05/11 12:42:25;;;;;;;5.63;1.80;;;;;;;;;;5021987;28;20030;-68
2021/05/11 12:45:06;;;;;;;5.68;1.70;;;;;;;;;;5021792;28;20018;-69
2021/05/11 12:47:46;;;;;;;7.22;2.50;;;;;;;;;;4990588;28;20030;-68
2021/05/11 12:50:33;;;;;;;7.75;1.70;;;;;;;;;;4990647;28;20022;-69
2021/05/11 12:53:07;;;;;;;4.70;1.83;;;;;;;;;;5021967;28;20380;-69
2021/05/11 12:56:07;;;;;;;12.63;2.20;;;;;;;;;;4989668;28;20106;-70
2021/05/11 12:58:45;;;;;;;10.15;1.85;;;;;;;;;;4990847;28;20031;-72
2021/05/11 13:01:31;;;;;;;4.82;1.40;;;;;;;;;;4990871;28;20168;-70
2021/05/11 13:04:34;;;;;;;13.10;1.95;;;;;;;;;;5010302;28;20025;-69
2021/05/11 13:25:53;;;;;;;7.00;1.90;;;;;;;;;;4990289;28;20109;-71
2021/05/11 13:31:06;;;;;;;6.05;2.03;;;;;;;;;;4990123;28;20495;-68
2021/05/11 13:33:36;;;;;;;9.30;2.30;;;;;;;;;;4989607;28;20126;-69
2021/05/11 13:36:02;;;;;;;6.43;1.70;;;;;;;;;;5021353;28;20505;-70
2021/05/11 13:38:28;;;;;;;6.53;1.70;;;;;;;;;;5005558;28;20044;-69
2021/05/11 13:40:54;;;;;;;8.02;1.55;;;;;;;;;;5009256;28;20041;-70
2021/05/11 13:43:21;;;;;;;6.18;1.70;;;;;;;;;;5009348;28;20041;-70
2021/05/11 13:45:47;;;;;;;10.68;1.80;;;;;;;;;;5008880;28;20030;-73
2021/05/11 13:48:22;;;;;;;4.55;1.88;;;;;;;;;;5009036;28;20033;-66
2021/05/11 13:53:30;;;;;;;4.55;1.60;;;;;;;;;;5009530;28;20041;-68
2021/05/11 14:02:02;;;;;;;8.77;2.15;;;;;;;;;;4992830;28;20056;-68
2021/05/11 14:04:29;;;;;;;10.93;2.42;;;;;;;;;;4989247;28;20022;-69
2021/05/11 14:06:55;;;;;;;3.67;1.77;;;;;;;;;;4988179;28;20506;-74
2021/05/11 14:09:21;;;;;;;7.35;1.95;;;;;;;;;;4989446;28;20042;-66
2021/05/11 14:11:47;;;;;;;4.63;1.60;;;;;;;;;;4999622;28;20014;-69
2021/05/11 14:14:14;;;;;;;3.20;1.40;;;;;;;;;;5040503;28;20467;-73
2021/05/11 14:16:42;;;;;;;5.53;1.90;;;;;;;;;;5008884;28;20053;-70
2021/05/11 14:19:08;;;;;;;6.43;1.90;;;;;;;;;;5008866;28;20025;-70
2021/05/11 14:21:34;;;;;;;5.47;2.15;;;;;;;;;;5008263;28;20018;-67
2021/05/11 14:24:02;;;;;;;6.35;1.75;;;;;;;;;;5040225;28;20037;-80
2021/05/11 14:26:28;;;;;;;8.13;2.13;;;;;;;;;;5008805;28;20100;-78
2021/05/11 14:28:54;;;;;;;8.82;2.25;;;;;;;;;;5028874;28;20034;-69
2021/05/11 14:31:20;;;;;;;28.75;2.60;;;;;;;;;;4988751;28;20018;-69
2021/05/11 14:33:46;;;;;;;5.65;1.88;;;;;;;;;;4988683;28;20050;-71
2021/05/11 14:36:12;;;;;;;5.80;1.83;;;;;;;;;;4988786;28;20054;-73
2021/05/11 14:38:39;;;;;;;8.27;1.85;;;;;;;;;;4988761;28;20035;-67
2021/05/11 14:41:05;;;;;;;3.85;1.60;;;;;;;;;;5020175;28;20022;-67
2021/05/11 14:43:32;;;;;;;8.43;1.75;;;;;;;;;;4988480;28;20022;-68
2021/05/11 14:46:02;;;;;;;7.35;1.80;;;;;;;;;;5000650;28;20034;-69
2021/05/11 14:48:29;;;;;;;7.70;1.75;;;;;;;;;;5040418;28;20390;-68
2021/05/11 14:50:56;;;;;;;9.27;2.00;;;;;;;;;;5008239;28;20025;-67
2021/05/11 14:53:22;;;;;;;9.82;2.00;;;;;;;;;;5008387;28;20121;-67
2021/05/11 14:55:48;;;;;;;5.13;1.80;;;;;;;;;;5008764;28;20018;-66
2021/05/11 14:58:14;;;;;;;6.15;1.92;;;;;;;;;;5001052;28;20014;-68
2021/05/11 15:00:40;;;;;;;3.95;1.95;;;;;;;;;;4989280;28;20029;-66
2021/05/11 15:03:06;;;;;;;5.38;1.45;;;;;;;;;;5002190;28;20215;-68
2021/05/11 15:05:32;;;;;;;10.07;1.83;;;;;;;;;;5008549;28;20054;-67
2021/05/11 15:07:58;;;;;;;10.98;2.10;;;;;;;;;;5008469;28;20052;-69
2021/05/11 15:10:25;;;;;;;6.22;1.70;;;;;;;;;;5008303;28;20463;-68
2021/05/11 15:12:51;;;;;;;5.43;2.05;;;;;;;;;;5039698;28;20444;-68
2021/05/11 15:15:20;;;;;;;4.95;2.00;;;;;;;;;;5008567;28;20052;-70
2021/05/11 15:20:13;;;;;;;11.18;1.80;;;;;;;;;;4998199;28;20031;-70
2021/05/11 15:22:39;;;;;;;8.45;1.85;;;;;;;;;;4992094;28;20023;-70
2021/05/11 15:25:06;;;;;;;8.48;1.67;;;;;;;;;;4992701;28;20034;-70
2021/05/11 15:27:34;;;;;;;4.68;2.08;;;;;;;;;;5028147;28;20159;-70
2021/05/11 15:30:01;;;;;;;11.13;2.05;;;;;;;;;;5053254;28;20034;-69
2021/05/11 15:32:53;;;;;;;9.60;1.58;;;;;;;;;;5017181;28;20087;-70
2021/05/11 15:35:21;;;;;;;4.07;1.73;;;;;;;;;;5019850;28;20098;-70
2021/05/11 15:37:52;;;;;;;13.02;1.90;;;;;;;;;;5018085;28;20280;-70
2021/05/11 15:40:18;;;;;;;5.40;1.60;;;;;;;;;;5019166;28;20100;-72
2021/05/11 15:42:44;;;;;;;4.82;1.90;;;;;;;;;;5010381;28;20569;-70
2021/05/11 15:45:11;;;;;;;5.07;1.80;;;;;;;;;;5011615;28;20022;-70
2021/05/11 15:47:38;;;;;;;7.30;1.58;;;;;;;;;;5009836;28;20044;-67
2021/05/11 15:50:07;;;;;;;6.25;1.75;;;;;;;;;;5011237;28;20553;-71
2021/05/11 15:52:33;;;;;;;6.55;1.90;;;;;;;;;;5015426;28;20039;-68
2021/05/11 15:54:59;;;;;;;7.03;1.85;;;;;;;;;;5050439;28;20045;-73
2021/05/11 15:57:25;;;;;;;3.72;1.60;;;;;;;;;;5021862;28;20070;-69
2021/05/11 15:59:51;;;;;;;5.97;2.08;;;;;;;;;;5018916;28;20021;-70
2021/05/11 16:02:17;;;;;;;10.30;1.77;;;;;;;;;;5021335;28;20417;-70
2021/05/11 16:04:43;;;;;;;5.28;1.70;;;;;;;;;;5020702;28;20098;-69
2021/05/11 16:07:12;;;;;;;7.65;1.90;;;;;;;;;;5018989;28;20041;-75
2021/05/11 16:09:38;;;;;;;6.93;1.83;;;;;;;;;;5020446;28;20090;-76
2021/05/11 16:12:05;;;;;;;4.75;1.60;;;;;;;;;;5012617;28;20036;-68
2021/05/11 16:14:31;;;;;;;6.38;1.75;;;;;;;;;;5010592;28;20497;-68
2021/05/11 16:16:57;;;;;;;7.72;1.75;;;;;;;;;;5010889;28;20030;-68
2021/05/11 16:19:23;;;;;;;8.45;1.90;;;;;;;;;;5011226;28;20167;-68
2021/05/11 16:21:49;;;;;;;7.40;1.63;;;;;;;;;;5010884;28;20037;-68
2021/05/11 16:24:15;;;;;;;5.13;1.80;;;;;;;;;;5010963;28;20098;-67
2021/05/11 16:26:41;;;;;;;7.18;1.80;;;;;;;;;;5009092;28;20028;-69
2021/05/11 16:29:07;;;;;;;4.30;1.50;;;;;;;;;;5010723;28;20018;-68
2021/05/11 16:31:33;;;;;;;6.30;1.88;;;;;;;;;;5010463;28;20498;-68
2021/05/11 16:34:00;;;;;;;7.45;2.10;;;;;;;;;;5010420;28;20057;-68
2021/05/11 16:36:26;;;;;;;5.00;1.73;;;;;;;;;;5010566;28;20045;-67
2021/05/11 16:38:52;;;;;;;4.53;1.70;;;;;;;;;;5010551;28;20017;-68
2021/05/11 16:41:18;;;;;;;5.97;1.90;;;;;;;;;;5010627;28;20049;-68
2021/05/11 16:43:44;;;;;;;7.20;1.90;;;;;;;;;;5008325;28;20030;-68
2021/05/11 16:46:10;;;;;;;6.93;1.90;;;;;;;;;;4991049;28;20027;-66
2021/05/11 16:48:36;;;;;;;7.85;1.88;;;;;;;;;;4990643;28;20542;-68
2021/05/11 16:51:03;;;;;;;4.45;1.80;;;;;;;;;;4991242;28;20030;-66
2021/05/11 16:53:29;;;;;;;5.07;1.80;;;;;;;;;;4990941;28;20035;-69
2021/05/11 16:55:56;;;;;;;8.07;1.80;;;;;;;;;;5006681;28;20029;-69
2021/05/11 16:58:22;;;;;;;12.70;2.00;;;;;;;;;;5010725;28;20034;-69
2021/05/11 17:00:49;;;;;;;11.07;1.80;;;;;;;;;;5009884;28;20065;-69
2021/05/11 17:03:16;;;;;;;33.63;2.85;;;;;;;;;;5009671;28;20041;-69
2021/05/11 17:05:42;;;;;;;9.65;2.47;;;;;;;;;;5008565;28;20018;-69
2021/05/11 17:08:11;;;;;;;14.55;2.40;;;;;;;;;;5007863;28;20531;-69
2021/05/11 17:10:37;;;;;;;7.47;2.03;;;;;;;;;;5008199;28;20036;-69
2021/05/11 17:13:04;;;;;;;7.47;2.13;;;;;;;;;;5008850;28;20041;-69
2021/05/11 17:15:31;;;;;;;8.23;2.05;;;;;;;;;;5010446;28;20026;-69
2021/05/11 17:17:57;;;;;;;4.13;1.83;;;;;;;;;;5008500;28;20026;-70
2021/05/11 17:20:25;;;;;;;17.70;2.58;;;;;;;;;;5010327;28;20038;-69
2021/05/11 17:22:51;;;;;;;5.63;1.88;;;;;;;;;;5010291;28;20079;-69
2021/05/11 17:25:18;;;;;;;6.57;1.77;;;;;;;;;;5010221;28;20038;-69
2021/05/11 17:27:45;;;;;;;4.57;1.90;;;;;;;;;;5010518;28;20022;-69
2021/05/11 17:30:11;;;;;;;5.07;1.88;;;;;;;;;;5010042;28;20026;-69
2021/05/11 17:32:37;;;;;;;7.03;1.90;;;;;;;;;;5009904;28;20486;-69
2021/05/11 17:35:04;;;;;;;4.07;1.85;;;;;;;;;;5005055;28;20442;-70
2021/05/11 17:37:30;;;;;;;7.10;1.80;;;;;;;;;;4990540;28;20022;-69
2021/05/11 17:39:56;;;;;;;5.25;1.65;;;;;;;;;;5022176;28;20411;-69
2021/05/11 17:42:22;;;;;;;5.88;1.90;;;;;;;;;;4989333;28;20027;-69
2021/05/11 17:44:48;;;;;;;6.45;1.95;;;;;;;;;;5021796;28;20030;-69
2021/05/11 17:47:16;;;;;;;6.38;1.75;;;;;;;;;;4990268;28;20151;-69
2021/05/11 17:49:42;;;;;;;3.85;1.60;;;;;;;;;;5021689;28;20407;-69
2021/05/11 17:52:09;;;;;;;3.53;1.80;;;;;;;;;;4995214;28;20502;-69
2021/05/11 17:54:35;;;;;;;5.60;1.80;;;;;;;;;;5000723;28;20400;-69
2021/05/11 17:57:01;;;;;;;5.93;1.80;;;;;;;;;;4990042;28;20018;-69
2021/05/11 17:59:27;;;;;;;4.60;1.80;;;;;;;;;;4989890;28;20030;-69
2021/05/11 18:01:54;;;;;;;5.55;1.67;;;;;;;;;;4989763;28;20101;-69
2021/05/11 18:04:20;;;;;;;4.45;1.85;;;;;;;;;;5021451;28;20022;-70
2021/05/11 18:06:47;;;;;;;5.85;1.90;;;;;;;;;;4989953;28;20030;-69
2021/05/11 18:09:15;;;;;;;7.75;2.05;;;;;;;;;;5000026;28;20022;-69
2021/05/11 18:11:41;;;;;;;7.95;1.95;;;;;;;;;;5008394;28;20373;-67
2021/05/11 18:14:07;;;;;;;8.73;2.28;;;;;;;;;;5008203;28;20110;-66
2021/05/11 18:16:33;;;;;;;10.23;2.65;;;;;;;;;;5039984;28;20018;-66
2021/05/11 18:19:02;;;;;;;8.85;2.75;;;;;;;;;;5006984;28;20079;-66
2021/05/11 18:21:28;;;;;;;8.60;3.17;;;;;;;;;;5004724;28;20358;-69
2021/05/11 18:23:54;;;;;;;8.05;3.13;;;;;;;;;;5007545;28;20030;-68
2021/05/11 18:26:20;;;;;;;8.73;3.65;;;;;;;;;;5007378;28;20026;-66
2021/05/11 18:28:46;;;;;;;7.90;3.97;;;;;;;;;;5008483;28;20418;-67
2021/05/11 18:31:12;;;;;;;10.80;4.35;;;;;;;;;;5008555;28;20022;-67
2021/05/11 18:33:39;;;;;;;11.63;4.18;;;;;;;;;;5008413;28;20401;-67
2021/05/11 18:39:05;;;;;;;15.43;3.80;;;;;;;;;;5060778;28;20032;-67
2021/05/11 18:41:31;;;;;;;7.55;3.75;;;;;;;;;;5008147;28;20085;-68
2021/05/11 18:43:57;;;;;;;10.23;3.70;;;;;;;;;;4999466;28;20398;-67
2021/05/11 18:46:23;;;;;;;9.73;3.80;;;;;;;;;;5024739;28;20038;-69
2021/05/11 18:48:50;;;;;;;12.70;3.00;;;;;;;;;;4988122;28;20426;-69
2021/05/11 18:51:16;;;;;;;14.48;3.60;;;;;;;;;;5007011;28;20026;-67
2021/05/11 18:53:42;;;;;;;11.98;3.25;;;;;;;;;;5007958;28;20041;-68
2021/05/11 18:56:08;;;;;;;10.45;3.95;;;;;;;;;;5008864;28;20405;-67
2021/05/11 18:58:34;;;;;;;13.15;3.65;;;;;;;;;;5010959;28;20087;-70
2021/05/11 19:01:00;;;;;;;11.23;3.70;;;;;;;;;;5008802;28;20034;-68
2021/05/11 19:03:29;;;;;;;7.18;3.60;;;;;;;;;;5010739;28;20014;-69